KLM039M LDZA-EHAM
Flight info
| Callsign | KLM039M |
|---|---|
| Flight time | 1h 41m |
| Altitude | 36000 |
| Route | PODET DCT RADLY DCT SIMBA DCT STAUB DCT MOOCE/N0406F240 L604 SULUS DCT GASKA DCT MASEK DCT MAPOX DCT NORKU |
| Aircraft | B738/M-SDE2E3FGHIRWXY/LB1 |
Departure
| Time | 2026-05-07 09:31 |
|---|---|
| Airport | Zagreb Franjo Tuđman International Airport (LDZA) |
Arrival
| Time | 2026-05-07 11:12 |
|---|---|
| Airport | Amsterdam Airport Schiphol (EHAM) |
| Time | Latitude | Longitude | Altitude | Speed | Heading |
|---|---|---|---|---|---|
| 2026-05-07 09:06 | 45.74248 | 16.07907 | 359 ft | 0 kts | 135° |
| 2026-05-07 09:21 | 45.74248 | 16.07906 | 359 ft | 1 kts | 135° |
| 2026-05-07 09:22 | 45.74264 | 16.07885 | 361 ft | 4 kts | 135° |
| 2026-05-07 09:22 | 45.74281 | 16.07856 | 358 ft | 4 kts | 117° |
| 2026-05-07 09:22 | 45.74288 | 16.07822 | 356 ft | 4 kts | 81° |
| 2026-05-07 09:22 | 45.74281 | 16.07798 | 358 ft | 2 kts | 46° |
| 2026-05-07 09:23 | 45.74278 | 16.07794 | 358 ft | 2 kts | 46° |
| 2026-05-07 09:23 | 45.74279 | 16.07794 | 353 ft | 0 kts | 46° |
| 2026-05-07 09:26 | 45.74298 | 16.07824 | 356 ft | 5 kts | 47° |
| 2026-05-07 09:27 | 45.74326 | 16.07866 | 357 ft | 9 kts | 47° |
| 2026-05-07 09:27 | 45.74421 | 16.07854 | 355 ft | 24 kts | 316° |
| 2026-05-07 09:27 | 45.74647 | 16.07806 | 358 ft | 23 kts | 47° |
| 2026-05-07 09:28 | 45.74770 | 16.07995 | 357 ft | 19 kts | 47° |
| 2026-05-07 09:28 | 45.74836 | 16.08068 | 361 ft | 13 kts | 4° |
| 2026-05-07 09:28 | 45.74932 | 16.07964 | 364 ft | 22 kts | 312° |
| 2026-05-07 09:28 | 45.74930 | 16.07845 | 364 ft | 0 kts | 228° |
| 2026-05-07 09:29 | 45.74918 | 16.07827 | 362 ft | 7 kts | 224° |
| 2026-05-07 09:30 | 45.74893 | 16.07793 | 366 ft | 0 kts | 230° |
| 2026-05-07 09:30 | 45.74714 | 16.07515 | 357 ft | 76 kts | 226° |
| 2026-05-07 09:31 | 45.74197 | 16.06730 | 360 ft | 140 kts | 226° |
| 2026-05-07 09:31 | 45.73431 | 16.05540 | 570 ft | 179 kts | 227° |
| 2026-05-07 09:31 | 45.72546 | 16.04118 | 1157 ft | 200 kts | 227° |
| 2026-05-07 09:31 | 45.71565 | 16.02598 | 1709 ft | 215 kts | 226° |
| 2026-05-07 09:32 | 45.70513 | 16.01020 | 2291 ft | 224 kts | 225° |
| 2026-05-07 09:32 | 45.69375 | 15.99275 | 2501 ft | 252 kts | 230° |
| 2026-05-07 09:32 | 45.68235 | 15.97307 | 3071 ft | 268 kts | 229° |
| 2026-05-07 09:32 | 45.66977 | 15.95181 | 3702 ft | 283 kts | 230° |
| 2026-05-07 09:33 | 45.65735 | 15.93082 | 4877 ft | 274 kts | 236° |
| 2026-05-07 09:33 | 45.65086 | 15.90616 | 6117 ft | 262 kts | 263° |
| 2026-05-07 09:33 | 45.65224 | 15.88028 | 7137 ft | 264 kts | 284° |
| 2026-05-07 09:33 | 45.66046 | 15.85659 | 7974 ft | 272 kts | 303° |
| 2026-05-07 09:34 | 45.67457 | 15.83802 | 8789 ft | 283 kts | 326° |
| 2026-05-07 09:34 | 45.69243 | 15.82523 | 9584 ft | 290 kts | 332° |
| 2026-05-07 09:34 | 45.71104 | 15.81332 | 10274 ft | 297 kts | 333° |
| 2026-05-07 09:34 | 45.73027 | 15.80129 | 10512 ft | 320 kts | 333° |
| 2026-05-07 09:35 | 45.75142 | 15.78807 | 10705 ft | 343 kts | 333° |
| 2026-05-07 09:35 | 45.77391 | 15.77399 | 10957 ft | 362 kts | 333° |
| 2026-05-07 09:35 | 45.79727 | 15.75933 | 11501 ft | 370 kts | 333° |
| 2026-05-07 09:35 | 45.82092 | 15.74444 | 12204 ft | 373 kts | 333° |
| 2026-05-07 09:36 | 45.84472 | 15.72938 | 12947 ft | 376 kts | 332° |
| 2026-05-07 09:36 | 45.86884 | 15.71405 | 13642 ft | 380 kts | 332° |
| 2026-05-07 09:36 | 45.89315 | 15.69853 | 14252 ft | 385 kts | 331° |
| 2026-05-07 09:36 | 45.91785 | 15.68273 | 14787 ft | 392 kts | 331° |
| 2026-05-07 09:37 | 45.94291 | 15.66666 | 15343 ft | 397 kts | 332° |
| 2026-05-07 09:37 | 45.96828 | 15.65039 | 15926 ft | 402 kts | 332° |
| 2026-05-07 09:37 | 45.99366 | 15.63409 | 16474 ft | 407 kts | 332° |
| 2026-05-07 09:37 | 46.02008 | 15.61712 | 17024 ft | 413 kts | 332° |
| 2026-05-07 09:38 | 46.04615 | 15.60036 | 17559 ft | 418 kts | 332° |
| 2026-05-07 09:38 | 46.07286 | 15.58316 | 18083 ft | 424 kts | 332° |
| 2026-05-07 09:38 | 46.09992 | 15.56572 | 18575 ft | 428 kts | 332° |
| 2026-05-07 09:38 | 46.12721 | 15.54811 | 19109 ft | 431 kts | 332° |
| 2026-05-07 09:39 | 46.15466 | 15.53039 | 19658 ft | 433 kts | 332° |
| 2026-05-07 09:39 | 46.18229 | 15.51253 | 20154 ft | 437 kts | 332° |
| 2026-05-07 09:39 | 46.21008 | 15.49454 | 20638 ft | 440 kts | 331° |
| 2026-05-07 09:39 | 46.23809 | 15.47638 | 21117 ft | 443 kts | 331° |
| 2026-05-07 09:40 | 46.26629 | 15.45808 | 21582 ft | 446 kts | 331° |
| 2026-05-07 09:40 | 46.29470 | 15.43962 | 22052 ft | 449 kts | 331° |
| 2026-05-07 09:40 | 46.32334 | 15.42101 | 22515 ft | 452 kts | 331° |
| 2026-05-07 09:40 | 46.35223 | 15.40219 | 22911 ft | 456 kts | 331° |
| 2026-05-07 09:41 | 46.38098 | 15.38343 | 23257 ft | 461 kts | 331° |
| 2026-05-07 09:41 | 46.41041 | 15.36422 | 23691 ft | 464 kts | 331° |
| 2026-05-07 09:41 | 46.43989 | 15.34498 | 24120 ft | 465 kts | 331° |
| 2026-05-07 09:41 | 46.46941 | 15.32568 | 24571 ft | 466 kts | 330° |
| 2026-05-07 09:42 | 46.49900 | 15.30631 | 24967 ft | 467 kts | 330° |
| 2026-05-07 09:42 | 46.52874 | 15.28682 | 25333 ft | 470 kts | 330° |
| 2026-05-07 09:42 | 46.55858 | 15.26724 | 25698 ft | 472 kts | 330° |
| 2026-05-07 09:42 | 46.58860 | 15.24751 | 26017 ft | 476 kts | 330° |
| 2026-05-07 09:43 | 46.61891 | 15.22751 | 26265 ft | 479 kts | 329° |
| 2026-05-07 09:43 | 46.64810 | 15.20455 | 26649 ft | 474 kts | 321° |
| 2026-05-07 09:43 | 46.67406 | 15.17576 | 27058 ft | 465 kts | 311° |
| 2026-05-07 09:43 | 46.69790 | 15.14390 | 27435 ft | 466 kts | 310° |
| 2026-05-07 09:44 | 46.72169 | 15.11146 | 27679 ft | 470 kts | 310° |
| 2026-05-07 09:44 | 46.74559 | 15.07879 | 28010 ft | 472 kts | 310° |
| 2026-05-07 09:44 | 46.76961 | 15.04611 | 28366 ft | 473 kts | 310° |
| 2026-05-07 09:44 | 46.79378 | 15.01344 | 28666 ft | 474 kts | 310° |
| 2026-05-07 09:45 | 46.81789 | 14.98098 | 28978 ft | 476 kts | 310° |
| 2026-05-07 09:45 | 46.84198 | 14.94856 | 29254 ft | 475 kts | 310° |
| 2026-05-07 09:45 | 46.86634 | 14.91587 | 29647 ft | 474 kts | 310° |
| 2026-05-07 09:45 | 46.89071 | 14.88327 | 30092 ft | 472 kts | 310° |
| 2026-05-07 09:46 | 46.91495 | 14.85075 | 30489 ft | 471 kts | 310° |
| 2026-05-07 09:46 | 46.93914 | 14.81818 | 30679 ft | 474 kts | 310° |
| 2026-05-07 09:46 | 46.96343 | 14.78541 | 30918 ft | 475 kts | 310° |
| 2026-05-07 09:46 | 46.98767 | 14.75268 | 31292 ft | 473 kts | 309° |
| 2026-05-07 09:47 | 47.01149 | 14.72051 | 31720 ft | 470 kts | 309° |
| 2026-05-07 09:47 | 47.03544 | 14.68812 | 32130 ft | 468 kts | 309° |
| 2026-05-07 09:47 | 47.05933 | 14.65574 | 32431 ft | 467 kts | 309° |
| 2026-05-07 09:47 | 47.08320 | 14.62331 | 32606 ft | 468 kts | 309° |
| 2026-05-07 09:48 | 47.10713 | 14.59074 | 32795 ft | 469 kts | 309° |
| 2026-05-07 09:48 | 47.13101 | 14.55824 | 33196 ft | 467 kts | 309° |
| 2026-05-07 09:48 | 47.15478 | 14.52589 | 33507 ft | 466 kts | 309° |
| 2026-05-07 09:48 | 47.17056 | 14.50437 | 33661 ft | 466 kts | 309° |
| 2026-05-07 09:49 | 47.19442 | 14.47177 | 33904 ft | 466 kts | 309° |
| 2026-05-07 09:49 | 47.21818 | 14.43930 | 34174 ft | 465 kts | 309° |
| 2026-05-07 09:49 | 47.24179 | 14.40699 | 34410 ft | 464 kts | 309° |
| 2026-05-07 09:49 | 47.26543 | 14.37459 | 34579 ft | 464 kts | 309° |
| 2026-05-07 09:50 | 47.28907 | 14.34214 | 34747 ft | 464 kts | 309° |
| 2026-05-07 09:50 | 47.31267 | 14.30970 | 34965 ft | 464 kts | 309° |
| 2026-05-07 09:50 | 47.33615 | 14.27739 | 35201 ft | 463 kts | 309° |
| 2026-05-07 09:50 | 47.35968 | 14.24498 | 35407 ft | 463 kts | 310° |
| 2026-05-07 09:51 | 47.38293 | 14.21289 | 35588 ft | 464 kts | 310° |
| 2026-05-07 09:51 | 47.40646 | 14.18039 | 35804 ft | 463 kts | 310° |
| 2026-05-07 09:51 | 47.42994 | 14.14794 | 35972 ft | 461 kts | 310° |
| 2026-05-07 09:52 | 47.47670 | 14.08317 | 35980 ft | 461 kts | 310° |
| 2026-05-07 09:52 | 47.52361 | 14.01797 | 35991 ft | 463 kts | 310° |
| 2026-05-07 09:53 | 47.57065 | 13.95244 | 36003 ft | 466 kts | 310° |
| 2026-05-07 09:53 | 47.61771 | 13.88671 | 36001 ft | 469 kts | 310° |
| 2026-05-07 09:54 | 47.66519 | 13.82028 | 35996 ft | 468 kts | 310° |
| 2026-05-07 09:54 | 47.71255 | 13.75383 | 35991 ft | 467 kts | 310° |
| 2026-05-07 09:55 | 47.75945 | 13.68785 | 36001 ft | 465 kts | 310° |
| 2026-05-07 09:55 | 47.80596 | 13.62224 | 36010 ft | 463 kts | 310° |
| 2026-05-07 09:56 | 47.85259 | 13.55625 | 36024 ft | 461 kts | 310° |
| 2026-05-07 09:56 | 47.89845 | 13.49121 | 36002 ft | 459 kts | 310° |
| 2026-05-07 09:57 | 47.94460 | 13.42561 | 36005 ft | 456 kts | 310° |
| 2026-05-07 09:57 | 47.99012 | 13.36070 | 36005 ft | 455 kts | 310° |
| 2026-05-07 09:58 | 48.03599 | 13.29512 | 36018 ft | 456 kts | 310° |
| 2026-05-07 09:58 | 48.08193 | 13.22927 | 36024 ft | 458 kts | 310° |
| 2026-05-07 09:59 | 48.12817 | 13.16286 | 36007 ft | 461 kts | 310° |
| 2026-05-07 09:59 | 48.17434 | 13.09641 | 36006 ft | 464 kts | 310° |
| 2026-05-07 10:00 | 48.22184 | 13.03026 | 35990 ft | 470 kts | 317° |
| 2026-05-07 10:00 | 48.27940 | 12.98164 | 36019 ft | 481 kts | 332° |
| 2026-05-07 10:01 | 48.34148 | 12.94321 | 36012 ft | 483 kts | 333° |
| 2026-05-07 10:01 | 48.40356 | 12.90472 | 36003 ft | 482 kts | 333° |
| 2026-05-07 10:02 | 48.46482 | 12.86573 | 35988 ft | 480 kts | 332° |
| 2026-05-07 10:02 | 48.52614 | 12.82622 | 35995 ft | 478 kts | 332° |
| 2026-05-07 10:03 | 48.58725 | 12.78675 | 35994 ft | 476 kts | 332° |
| 2026-05-07 10:03 | 48.64806 | 12.74742 | 35996 ft | 475 kts | 332° |
| 2026-05-07 10:04 | 48.70818 | 12.70846 | 35988 ft | 475 kts | 332° |
| 2026-05-07 10:04 | 48.76853 | 12.66846 | 35991 ft | 471 kts | 327° |
| 2026-05-07 10:05 | 48.82105 | 12.61159 | 36002 ft | 460 kts | 312° |
| 2026-05-07 10:05 | 48.86744 | 12.54560 | 36002 ft | 460 kts | 311° |
| 2026-05-07 10:06 | 48.91420 | 12.47878 | 36005 ft | 462 kts | 311° |
| 2026-05-07 10:06 | 48.96134 | 12.41214 | 36000 ft | 463 kts | 312° |
| 2026-05-07 10:07 | 49.00870 | 12.34548 | 36007 ft | 464 kts | 313° |
| 2026-05-07 10:07 | 49.05534 | 12.27970 | 35997 ft | 466 kts | 313° |
| 2026-05-07 10:08 | 49.10291 | 12.21239 | 36002 ft | 467 kts | 313° |
| 2026-05-07 10:08 | 49.15047 | 12.14491 | 35988 ft | 466 kts | 313° |
| 2026-05-07 10:09 | 49.19795 | 12.07735 | 35981 ft | 465 kts | 313° |
| 2026-05-07 10:09 | 49.24491 | 12.01034 | 36003 ft | 464 kts | 313° |
| 2026-05-07 10:10 | 49.29210 | 11.94283 | 35983 ft | 463 kts | 313° |
| 2026-05-07 10:10 | 49.33861 | 11.87610 | 35987 ft | 462 kts | 313° |
| 2026-05-07 10:11 | 49.38540 | 11.80880 | 35981 ft | 460 kts | 313° |
| 2026-05-07 10:11 | 49.43208 | 11.74146 | 35977 ft | 459 kts | 313° |
| 2026-05-07 10:12 | 49.47859 | 11.67418 | 35985 ft | 458 kts | 313° |
| 2026-05-07 10:12 | 49.52498 | 11.60693 | 35966 ft | 459 kts | 313° |
| 2026-05-07 10:13 | 49.57110 | 11.53984 | 35965 ft | 458 kts | 313° |
| 2026-05-07 10:13 | 49.61562 | 11.46946 | 35957 ft | 458 kts | 310° |
| 2026-05-07 10:14 | 49.65969 | 11.39854 | 35984 ft | 458 kts | 311° |
| 2026-05-07 10:14 | 49.70403 | 11.32793 | 35982 ft | 458 kts | 311° |
| 2026-05-07 10:15 | 49.74840 | 11.25717 | 35970 ft | 458 kts | 311° |
| 2026-05-07 10:15 | 49.79271 | 11.18616 | 35985 ft | 459 kts | 311° |
| 2026-05-07 10:16 | 49.83713 | 11.11477 | 35974 ft | 459 kts | 311° |
| 2026-05-07 10:16 | 49.88114 | 11.04388 | 35965 ft | 459 kts | 311° |
| 2026-05-07 10:17 | 49.92531 | 10.97245 | 35963 ft | 458 kts | 311° |
| 2026-05-07 10:17 | 49.96937 | 10.90101 | 35974 ft | 458 kts | 311° |
| 2026-05-07 10:18 | 50.01342 | 10.82946 | 35967 ft | 457 kts | 311° |
| 2026-05-07 10:18 | 50.05739 | 10.75783 | 35963 ft | 457 kts | 311° |
| 2026-05-07 10:19 | 50.10120 | 10.68626 | 35977 ft | 456 kts | 311° |
| 2026-05-07 10:19 | 50.14497 | 10.61462 | 35968 ft | 457 kts | 311° |
| 2026-05-07 10:20 | 50.18878 | 10.54266 | 35973 ft | 457 kts | 311° |
| 2026-05-07 10:20 | 50.23257 | 10.47052 | 35961 ft | 457 kts | 312° |
| 2026-05-07 10:21 | 50.27661 | 10.39972 | 35971 ft | 457 kts | 312° |
| 2026-05-07 10:21 | 50.32128 | 10.32811 | 35974 ft | 457 kts | 312° |
| 2026-05-07 10:22 | 50.36469 | 10.25609 | 35963 ft | 456 kts | 308° |
| 2026-05-07 10:22 | 50.40617 | 10.18089 | 35979 ft | 456 kts | 313° |
| 2026-05-07 10:23 | 50.45097 | 10.11038 | 35972 ft | 455 kts | 312° |
| 2026-05-07 10:23 | 50.49354 | 10.03771 | 35976 ft | 454 kts | 310° |
| 2026-05-07 10:24 | 50.53609 | 9.96429 | 35977 ft | 454 kts | 311° |
| 2026-05-07 10:24 | 50.57734 | 9.88932 | 35988 ft | 453 kts | 307° |
| 2026-05-07 10:25 | 50.61718 | 9.81203 | 35985 ft | 454 kts | 308° |
| 2026-05-07 10:25 | 50.65740 | 9.73524 | 35980 ft | 454 kts | 308° |
| 2026-05-07 10:26 | 50.69744 | 9.65901 | 35986 ft | 453 kts | 308° |
| 2026-05-07 10:26 | 50.73758 | 9.58218 | 35991 ft | 453 kts | 308° |
| 2026-05-07 10:27 | 50.77770 | 9.50526 | 35981 ft | 453 kts | 308° |
| 2026-05-07 10:27 | 50.81779 | 9.42827 | 35990 ft | 453 kts | 308° |
| 2026-05-07 10:28 | 50.85782 | 9.35118 | 36000 ft | 453 kts | 308° |
| 2026-05-07 10:28 | 50.89757 | 9.27441 | 35991 ft | 453 kts | 308° |
| 2026-05-07 10:29 | 50.93749 | 9.19708 | 35990 ft | 453 kts | 308° |
| 2026-05-07 10:29 | 50.97738 | 9.11958 | 35995 ft | 452 kts | 308° |
| 2026-05-07 10:30 | 51.03693 | 9.00345 | 35990 ft | 452 kts | 307° |
| 2026-05-07 10:30 | 51.07654 | 8.92594 | 35994 ft | 451 kts | 307° |
| 2026-05-07 10:31 | 51.11607 | 8.84837 | 36000 ft | 450 kts | 307° |
| 2026-05-07 10:31 | 51.15684 | 8.77342 | 36004 ft | 450 kts | 312° |
| 2026-05-07 10:32 | 51.20062 | 8.70193 | 36001 ft | 451 kts | 313° |
| 2026-05-07 10:32 | 51.24465 | 8.63067 | 36000 ft | 450 kts | 313° |
| 2026-05-07 10:33 | 51.28842 | 8.55895 | 36016 ft | 451 kts | 313° |
| 2026-05-07 10:33 | 51.33176 | 8.48727 | 36018 ft | 451 kts | 312° |
| 2026-05-07 10:34 | 51.37560 | 8.41443 | 36016 ft | 451 kts | 312° |
| 2026-05-07 10:34 | 51.41883 | 8.34239 | 36012 ft | 451 kts | 313° |
| 2026-05-07 10:35 | 51.46226 | 8.26981 | 36026 ft | 451 kts | 312° |
| 2026-05-07 10:35 | 51.50562 | 8.19717 | 36023 ft | 451 kts | 312° |
| 2026-05-07 10:36 | 51.54166 | 8.13661 | 36023 ft | 451 kts | 313° |
| 2026-05-07 10:36 | 51.58491 | 8.06375 | 36035 ft | 450 kts | 313° |
| 2026-05-07 10:37 | 51.62810 | 7.99078 | 36040 ft | 450 kts | 312° |
| 2026-05-07 10:37 | 51.67124 | 7.91767 | 36035 ft | 450 kts | 312° |
| 2026-05-07 10:38 | 51.71431 | 7.84446 | 36040 ft | 449 kts | 312° |
| 2026-05-07 10:38 | 51.75732 | 7.77114 | 36038 ft | 449 kts | 312° |
| 2026-05-07 10:39 | 51.79997 | 7.69823 | 36048 ft | 449 kts | 312° |
| 2026-05-07 10:39 | 51.84294 | 7.62456 | 36037 ft | 449 kts | 312° |
| 2026-05-07 10:40 | 51.88576 | 7.55090 | 36033 ft | 449 kts | 312° |
| 2026-05-07 10:40 | 51.92832 | 7.47749 | 35652 ft | 455 kts | 312° |
| 2026-05-07 10:41 | 51.94996 | 7.44007 | 35108 ft | 454 kts | 312° |
| 2026-05-07 10:41 | 51.97157 | 7.40266 | 34477 ft | 453 kts | 313° |
| 2026-05-07 10:41 | 51.99309 | 7.36536 | 33812 ft | 453 kts | 313° |
| 2026-05-07 10:41 | 52.01464 | 7.32794 | 33049 ft | 453 kts | 313° |
| 2026-05-07 10:42 | 52.03613 | 7.29059 | 32351 ft | 452 kts | 312° |
| 2026-05-07 10:42 | 52.05758 | 7.25324 | 31728 ft | 450 kts | 313° |
| 2026-05-07 10:42 | 52.07875 | 7.21630 | 31272 ft | 444 kts | 312° |
| 2026-05-07 10:42 | 52.09972 | 7.17968 | 30778 ft | 440 kts | 312° |
| 2026-05-07 10:43 | 52.12044 | 7.14342 | 30302 ft | 436 kts | 312° |
| 2026-05-07 10:43 | 52.14098 | 7.10745 | 29778 ft | 431 kts | 312° |
| 2026-05-07 10:43 | 52.16127 | 7.07185 | 29273 ft | 426 kts | 312° |
| 2026-05-07 10:43 | 52.18132 | 7.03664 | 28792 ft | 421 kts | 312° |
| 2026-05-07 10:44 | 52.20112 | 7.00180 | 28313 ft | 416 kts | 312° |
| 2026-05-07 10:44 | 52.22038 | 6.96765 | 27852 ft | 413 kts | 310° |
| 2026-05-07 10:44 | 52.23878 | 6.93210 | 27452 ft | 408 kts | 308° |
| 2026-05-07 10:44 | 52.25665 | 6.89579 | 27026 ft | 411 kts | 307° |
| 2026-05-07 10:45 | 52.27450 | 6.85922 | 26614 ft | 413 kts | 307° |
| 2026-05-07 10:45 | 52.29253 | 6.82258 | 26194 ft | 411 kts | 307° |
| 2026-05-07 10:45 | 52.31045 | 6.78654 | 25780 ft | 406 kts | 308° |
| 2026-05-07 10:45 | 52.32823 | 6.75084 | 25368 ft | 403 kts | 307° |
| 2026-05-07 10:46 | 52.34587 | 6.71541 | 24965 ft | 399 kts | 307° |
| 2026-05-07 10:46 | 52.36333 | 6.68025 | 24553 ft | 398 kts | 308° |
| 2026-05-07 10:46 | 52.38075 | 6.64508 | 24179 ft | 398 kts | 308° |
| 2026-05-07 10:46 | 52.39822 | 6.60981 | 23779 ft | 398 kts | 308° |
| 2026-05-07 10:47 | 52.41561 | 6.57466 | 23333 ft | 395 kts | 307° |
| 2026-05-07 10:47 | 52.43281 | 6.53984 | 22885 ft | 391 kts | 307° |
| 2026-05-07 10:47 | 52.44984 | 6.50532 | 22487 ft | 386 kts | 307° |
| 2026-05-07 10:47 | 52.46443 | 6.46962 | 22078 ft | 380 kts | 292° |
| 2026-05-07 10:48 | 52.47148 | 6.42824 | 21737 ft | 376 kts | 276° |
| 2026-05-07 10:48 | 52.47391 | 6.38538 | 21366 ft | 378 kts | 274° |
| 2026-05-07 10:48 | 52.47572 | 6.34213 | 20963 ft | 380 kts | 273° |
| 2026-05-07 10:48 | 52.47747 | 6.29900 | 20556 ft | 378 kts | 273° |
| 2026-05-07 10:49 | 52.47934 | 6.25586 | 20174 ft | 376 kts | 274° |
| 2026-05-07 10:49 | 52.48132 | 6.21307 | 19817 ft | 375 kts | 274° |
| 2026-05-07 10:49 | 52.48333 | 6.17106 | 19421 ft | 373 kts | 274° |
| 2026-05-07 10:49 | 52.48539 | 6.12879 | 19059 ft | 370 kts | 274° |
| 2026-05-07 10:50 | 52.48742 | 6.08689 | 18688 ft | 367 kts | 274° |
| 2026-05-07 10:50 | 52.48944 | 6.04479 | 18320 ft | 364 kts | 274° |
| 2026-05-07 10:50 | 52.49139 | 6.00363 | 17906 ft | 360 kts | 274° |
| 2026-05-07 10:50 | 52.49328 | 5.96332 | 17537 ft | 357 kts | 274° |
| 2026-05-07 10:51 | 52.49518 | 5.92240 | 17163 ft | 354 kts | 274° |
| 2026-05-07 10:51 | 52.49702 | 5.88282 | 16807 ft | 351 kts | 274° |
| 2026-05-07 10:51 | 52.49886 | 5.84295 | 16453 ft | 350 kts | 274° |
| 2026-05-07 10:51 | 52.50069 | 5.80301 | 16105 ft | 352 kts | 274° |
| 2026-05-07 10:52 | 52.50253 | 5.76289 | 15762 ft | 352 kts | 274° |
| 2026-05-07 10:52 | 52.50436 | 5.72272 | 15399 ft | 350 kts | 274° |
| 2026-05-07 10:52 | 52.50615 | 5.68313 | 15050 ft | 346 kts | 274° |
| 2026-05-07 10:52 | 52.50789 | 5.64397 | 14705 ft | 342 kts | 274° |
| 2026-05-07 10:53 | 52.50959 | 5.60514 | 14375 ft | 339 kts | 274° |
| 2026-05-07 10:53 | 52.50796 | 5.56690 | 14021 ft | 336 kts | 254° |
| 2026-05-07 10:53 | 52.49866 | 5.53215 | 13761 ft | 330 kts | 240° |
| 2026-05-07 10:53 | 52.48699 | 5.50016 | 13460 ft | 324 kts | 238° |
| 2026-05-07 10:54 | 52.47533 | 5.46938 | 13194 ft | 318 kts | 238° |
| 2026-05-07 10:54 | 52.46374 | 5.43882 | 12923 ft | 313 kts | 238° |
| 2026-05-07 10:54 | 52.45241 | 5.40875 | 12664 ft | 307 kts | 238° |
| 2026-05-07 10:54 | 52.44134 | 5.37914 | 12417 ft | 302 kts | 239° |
| 2026-05-07 10:55 | 52.43048 | 5.34996 | 12173 ft | 297 kts | 239° |
| 2026-05-07 10:55 | 52.41980 | 5.32120 | 11928 ft | 294 kts | 239° |
| 2026-05-07 10:55 | 52.40923 | 5.29270 | 11694 ft | 291 kts | 239° |
| 2026-05-07 10:55 | 52.39885 | 5.26470 | 11461 ft | 289 kts | 238° |
| 2026-05-07 10:56 | 52.38844 | 5.23662 | 11223 ft | 288 kts | 238° |
| 2026-05-07 10:56 | 52.37807 | 5.20864 | 10998 ft | 287 kts | 238° |
| 2026-05-07 10:56 | 52.36771 | 5.18075 | 10763 ft | 286 kts | 238° |
| 2026-05-07 10:56 | 52.35736 | 5.15297 | 10525 ft | 286 kts | 238° |
| 2026-05-07 10:57 | 52.34703 | 5.12529 | 10291 ft | 283 kts | 238° |
| 2026-05-07 10:57 | 52.33731 | 5.09749 | 10045 ft | 280 kts | 248° |
| 2026-05-07 10:57 | 52.33409 | 5.06645 | 9819 ft | 276 kts | 269° |
| 2026-05-07 10:57 | 52.33404 | 5.03540 | 9581 ft | 272 kts | 269° |
| 2026-05-07 10:58 | 52.33400 | 5.00461 | 9347 ft | 269 kts | 269° |
| 2026-05-07 10:58 | 52.33386 | 4.97400 | 9124 ft | 269 kts | 269° |
| 2026-05-07 10:58 | 52.33367 | 4.94367 | 8909 ft | 269 kts | 269° |
| 2026-05-07 10:58 | 52.33346 | 4.91315 | 8687 ft | 269 kts | 269° |
| 2026-05-07 10:59 | 52.33322 | 4.88265 | 8467 ft | 269 kts | 269° |
| 2026-05-07 10:59 | 52.33297 | 4.85210 | 8246 ft | 268 kts | 269° |
| 2026-05-07 10:59 | 52.33272 | 4.82165 | 8031 ft | 266 kts | 269° |
| 2026-05-07 10:59 | 52.33249 | 4.79216 | 7963 ft | 251 kts | 269° |
| 2026-05-07 11:00 | 52.33225 | 4.76464 | 7843 ft | 238 kts | 269° |
| 2026-05-07 11:00 | 52.33201 | 4.73835 | 7748 ft | 224 kts | 268° |
| 2026-05-07 11:00 | 52.33177 | 4.71369 | 7653 ft | 210 kts | 268° |
| 2026-05-07 11:00 | 52.33154 | 4.69065 | 7556 ft | 194 kts | 268° |
| 2026-05-07 11:01 | 52.33132 | 4.66819 | 7074 ft | 200 kts | 268° |
| 2026-05-07 11:01 | 52.33109 | 4.64621 | 6822 ft | 193 kts | 268° |
| 2026-05-07 11:01 | 52.33087 | 4.62431 | 6653 ft | 190 kts | 268° |
| 2026-05-07 11:01 | 52.33065 | 4.60297 | 6513 ft | 187 kts | 268° |
| 2026-05-07 11:02 | 52.33044 | 4.58206 | 6326 ft | 180 kts | 269° |
| 2026-05-07 11:02 | 52.33022 | 4.56185 | 6167 ft | 177 kts | 269° |
| 2026-05-07 11:02 | 52.33001 | 4.54184 | 6037 ft | 176 kts | 269° |
| 2026-05-07 11:02 | 52.32979 | 4.52056 | 5944 ft | 200 kts | 269° |
| 2026-05-07 11:03 | 52.32954 | 4.49683 | 5738 ft | 211 kts | 269° |
| 2026-05-07 11:03 | 52.32927 | 4.47278 | 5542 ft | 212 kts | 269° |
| 2026-05-07 11:03 | 52.32898 | 4.44875 | 5358 ft | 211 kts | 270° |
| 2026-05-07 11:03 | 52.32869 | 4.42474 | 5178 ft | 211 kts | 270° |
| 2026-05-07 11:04 | 52.32789 | 4.40080 | 4994 ft | 212 kts | 258° |
| 2026-05-07 11:04 | 52.32036 | 4.38089 | 4818 ft | 213 kts | 217° |
| 2026-05-07 11:04 | 52.30628 | 4.37258 | 4694 ft | 218 kts | 187° |
| 2026-05-07 11:04 | 52.29111 | 4.37036 | 4498 ft | 219 kts | 183° |
| 2026-05-07 11:05 | 52.27630 | 4.36876 | 4300 ft | 212 kts | 182° |
| 2026-05-07 11:05 | 52.26183 | 4.36714 | 4115 ft | 204 kts | 183° |
| 2026-05-07 11:05 | 52.24795 | 4.36615 | 3936 ft | 195 kts | 173° |
| 2026-05-07 11:05 | 52.23621 | 4.37507 | 3823 ft | 187 kts | 133° |
| 2026-05-07 11:06 | 52.22914 | 4.39226 | 3676 ft | 179 kts | 114° |
| 2026-05-07 11:06 | 52.22392 | 4.41014 | 3518 ft | 170 kts | 112° |
| 2026-05-07 11:06 | 52.21897 | 4.42757 | 3336 ft | 168 kts | 112° |
| 2026-05-07 11:06 | 52.21412 | 4.44456 | 3183 ft | 163 kts | 112° |
| 2026-05-07 11:07 | 52.20953 | 4.46152 | 3038 ft | 166 kts | 105° |
| 2026-05-07 11:07 | 52.20857 | 4.48007 | 2919 ft | 164 kts | 88° |
| 2026-05-07 11:07 | 52.20837 | 4.49872 | 2775 ft | 165 kts | 89° |
| 2026-05-07 11:07 | 52.20810 | 4.51724 | 2634 ft | 162 kts | 88° |
| 2026-05-07 11:08 | 52.21083 | 4.53463 | 2484 ft | 160 kts | 54° |
| 2026-05-07 11:08 | 52.21677 | 4.54925 | 2384 ft | 149 kts | 56° |
| 2026-05-07 11:08 | 52.22222 | 4.56295 | 2234 ft | 139 kts | 55° |
| 2026-05-07 11:08 | 52.22767 | 4.57693 | 2233 ft | 163 kts | 56° |
| 2026-05-07 11:09 | 52.23409 | 4.59373 | 2018 ft | 176 kts | 57° |
| 2026-05-07 11:09 | 52.24020 | 4.60996 | 1780 ft | 161 kts | 61° |
| 2026-05-07 11:09 | 52.24549 | 4.62499 | 1565 ft | 141 kts | 53° |
| 2026-05-07 11:09 | 52.25075 | 4.63773 | 1551 ft | 138 kts | 54° |
| 2026-05-07 11:10 | 52.25584 | 4.65086 | 1332 ft | 141 kts | 56° |
| 2026-05-07 11:10 | 52.26101 | 4.66416 | 1097 ft | 137 kts | 53° |
| 2026-05-07 11:10 | 52.26607 | 4.67731 | 836 ft | 135 kts | 56° |
| 2026-05-07 11:10 | 52.27094 | 4.69028 | 676 ft | 134 kts | 55° |
| 2026-05-07 11:11 | 52.27599 | 4.70326 | 515 ft | 135 kts | 54° |
| 2026-05-07 11:11 | 52.28093 | 4.71621 | 367 ft | 133 kts | 54° |
| 2026-05-07 11:11 | 52.28599 | 4.72916 | 165 ft | 137 kts | 56° |
| 2026-05-07 11:11 | 52.29102 | 4.74215 | 3 ft | 134 kts | 56° |
| 2026-05-07 11:12 | 52.29563 | 4.75416 | -5 ft | 96 kts | 58° |
| 2026-05-07 11:12 | 52.29861 | 4.76194 | -7 ft | 54 kts | 58° |
| 2026-05-07 11:12 | 52.30007 | 4.76511 | -4 ft | 22 kts | 38° |
| 2026-05-07 11:12 | 52.30113 | 4.76611 | -4 ft | 0 kts | 28° |
| 2026-05-07 11:13 | 52.30143 | 4.76636 | -3 ft | 13 kts | 28° |
| 2026-05-07 11:14 | 52.30243 | 4.76723 | -4 ft | 16 kts | 27° |
| 2026-05-07 11:14 | 52.30349 | 4.76918 | -4 ft | 28 kts | 58° |
| 2026-05-07 11:14 | 52.30455 | 4.77198 | -4 ft | 30 kts | 55° |
| 2026-05-07 11:14 | 52.30553 | 4.77451 | -4 ft | 15 kts | 57° |
| 2026-05-07 11:15 | 52.30656 | 4.77470 | -3 ft | 20 kts | 336° |
| 2026-05-07 11:15 | 52.30744 | 4.77459 | -3 ft | 0 kts | 2° |
| 2026-05-07 11:17 | 52.30750 | 4.77460 | -3 ft | 7 kts | 2° |
| 2026-05-07 11:17 | 52.30825 | 4.77449 | -3 ft | 13 kts | 320° |
| 2026-05-07 11:17 | 52.30843 | 4.77261 | -3 ft | 20 kts | 273° |
| 2026-05-07 11:18 | 52.30804 | 4.77166 | -3 ft | 7 kts | 182° |
| 2026-05-07 11:18 | 52.30795 | 4.77166 | -3 ft | 0 kts | 182° |